Date,TemperatureHighF,TemperatureAvgF,TemperatureLowF,DewpointHighF,DewpointAvgF,DewpointLowF,HumidityHigh,HumidityAvg,HumidityLow,PressureMaxIn,PressureMinIn,WindSpeedMaxMPH,WindSpeedAvgMPH,GustSpeedMaxMPH,PrecipitationSumIn
2013-1-1,54,50,48,46,44,42,83,78,72,28.89,28.82,4,0,4,0.00
2013-1-2,55,50,45,47,44,41,87,81,72,29.06,28.89,2,0,3,0.00
2013-1-3,56,51,47,48,45,39,87,80,68,29.15,29.06,0,0,0,0.00
2013-1-4,55,50,46,40,38,34,72,63,45,29.09,28.81,4,0,4,0.00
2013-1-5,54,50,47,38,36,34,67,60,47,28.80,28.53,3,0,4,0.00
2013-1-6,49,45,41,38,35,31,78,69,59,28.65,28.46,9,1,9,0.00
2013-1-7,49,43,38,31,28,22,68,56,44,28.74,28.59,8,1,8,0.00
2013-1-8,42,36,33,30,27,20,80,70,44,28.94,28.72,6,1,7,0.00
2013-1-9,43,37,33,29,26,22,68,64,56,28.97,28.89,5,0,5,0.00
2013-1-10,47,42,36,35,30,25,70,63,52,28.92,28.77,4,0,4,0.00
2013-1-11,56,51,44,50,45,35,89,81,70,28.77,28.57,4,0,7,0.00
2013-1-12,55,51,47,47,43,40,84,76,65,28.79,28.56,8,0,8,0.00
2013-1-13,54,50,45,44,41,38,81,72,64,28.97,28.78,0,0,1,0.00
2013-1-14,57,52,49,48,44,41,79,75,68,29.03,28.96,0,0,3,0.00
2013-1-15,58,53,48,49,46,42,83,77,67,29.01,28.77,5,0,5,0.00
2013-1-16,58,53,49,50,47,42,90,78,70,28.77,28.40,8,1,8,0.71
2013-1-17,57,52,47,49,45,40,80,75,66,28.53,28.41,6,0,8,0.04
2013-1-18,55,51,45,49,45,38,88,80,68,28.41,28.21,8,0,8,0.10
2013-1-19,52,48,44,40,38,37,79,70,58,28.61,28.27,8,1,8,0.02
2013-1-20,60,53,47,51,45,38,79,73,65,28.70,28.60,0,0,4,0.00
2013-1-21,61,56,51,51,48,46,82,73,60,28.68,28.41,5,0,5,0.00
2013-1-22,59,55,51,50,46,45,80,74,62,28.55,28.42,7,0,7,0.00
2013-1-23,57,54,51,47,42,39,77,66,53,28.71,28.55,7,1,8,0.00
2013-1-24,61,53,47,50,46,41,88,76,64,28.70,28.34,11,0,11,0.20
2013-1-25,55,49,46,47,44,40,89,81,69,28.40,28.24,6,0,8,0.29
2013-1-26,52,49,46,47,44,42,87,83,80,28.40,28.19,2,0,2,0.04
2013-1-27,50,47,45,43,41,40,87,79,70,28.68,28.40,3,0,3,0.04
2013-1-28,53,48,45,43,40,38,81,74,66,28.75,28.64,4,0,5,0.00
2013-1-29,48,46,44,40,39,37,82,76,72,28.84,28.74,4,0,4,0.00
2013-1-30,54,47,41,38,35,30,81,64,44,28.84,28.69,4,0,5,0.00
2013-1-31,56,50,45,44,38,31,68,62,48,28.78,28.59,6,0,7,0.00
2013-2-1,55,50,45,40,34,30,66,55,45,28.81,28.65,5,0,6,0.00
2013-2-2,61,54,49,49,45,39,79,71,62,28.66,28.52,7,0,7,0.00
2013-2-3,63,58,55,51,50,49,85,76,64,28.68,28.53,6,1,8,0.00
2013-2-4,64,58,54,54,51,49,84,77,64,28.74,28.67,3,0,3,0.00
2013-2-5,62,56,52,51,48,44,86,75,62,28.75,28.59,2,0,2,0.00
2013-2-6,59,54,50,50,46,43,83,76,68,28.60,28.42,8,0,8,0.00
2013-2-7,58,54,49,49,46,44,88,76,69,28.47,28.27,7,0,8,0.14
2013-2-8,55,51,47,45,41,39,82,71,61,28.49,28.28,7,0,7,0.06
2013-2-9,56,49,44,42,40,38,81,70,55,28.62,28.49,7,0,7,0.00
2013-2-10,55,50,46,41,38,37,74,64,52,28.62,28.54,6,0,7,0.00
2013-2-11,53,48,44,38,35,32,74,61,48,28.79,28.51,8,1,8,0.00
2013-2-12,56,50,43,45,39,33,75,67,54,28.81,28.75,6,0,6,0.00
2013-2-13,55,50,46,47,44,41,89,79,69,28.75,28.63,6,0,6,0.37
2013-2-14,51,48,46,45,43,42,88,84,76,28.65,28.43,0,0,0,0.04
2013-2-15,50,46,44,44,42,40,90,85,77,28.76,28.42,4,0,5,0.04
2013-2-16,142,49,44,46,43,40,85,80,71,28.80,28.74,1,0,1,0.08
2013-2-17,47,45,43,43,40,36,88,83,76,28.80,28.69,7,0,7,0.10
2013-2-18,52,45,41,41,38,35,82,74,62,28.82,28.78,4,0,4,0.00
2013-2-19,54,48,44,48,42,37,89,80,73,28.79,28.51,5,0,6,0.00
2013-2-20,56,49,44,42,38,36,80,67,52,28.80,28.56,5,0,5,0.00
2013-2-21,53,50,47,46,42,38,85,74,71,28.79,28.46,2,0,2,0.00
2013-2-22,53,50,47,49,47,44,90,87,83,28.48,28.32,5,0,5,0.69
2013-2-23,60,52,48,51,47,45,90,84,65,28.75,28.48,0,0,0,0.02
2013-2-24,65,60,50,52,48,45,84,66,57,28.83,28.77,0,0,1,0.00
2013-2-25,67,59,54,54,50,47,84,73,63,28.84,28.72,0,0,1,0.00
2013-2-26,63,57,53,51,45,41,78,64,49,28.79,28.72,1,0,1,0.00
2013-2-27,57,54,50,41,39,36,67,58,48,28.80,28.69,8,1,8,0.00
2013-2-28,52,49,45,40,38,37,74,67,62,28.95,28.80,7,0,7,0.00
2013-3-1,56,52,45,41,39,36,73,62,53,28.93,28.76,0,0,0,0.00
2013-3-2,53,50,45,43,41,37,76,72,66,28.76,28.62,0,0,2,0.00
2013-3-3,51,50,47,45,42,36,84,76,63,28.71,28.52,6,1,6,0.00
2013-3-4,47,45,44,37,37,36,74,73,70,28.76,28.71,0,0,0,0.00
2013-3-5,53,48,45,39,36,34,78,65,53,29.15,28.96,4,0,5,0.00
2013-3-6,52,48,43,39,35,32,67,61,56,29.12,28.92,0,0,0,0.00
2013-3-7,54,51,49,49,44,39,85,77,66,28.90,28.68,0,0,0,0.02
2013-3-8,62,56,50,50,48,46,88,76,64,28.64,28.60,0,0,2,0.02
2013-3-9,67,61,51,54,50,47,85,69,62,28.58,28.49,2,0,2,0.00
2013-3-10,66,56,54,49,47,46,76,72,55,28.55,28.50,1,0,1,0.00
2013-3-11,68,64,54,55,52,48,80,65,58,28.41,28.34,2,0,6,0.00
2013-3-12,68,65,62,45,43,42,51,45,41,28.38,28.36,9,2,10,0.00
2013-3-13,66,62,58,50,48,47,74,61,51,28.47,28.45,0,0,2,0.00
2013-3-14,68,62,58,51,47,42,79,58,44,28.47,28.07,5,0,5,0.00
2013-3-15,56,54,49,41,40,37,62,58,53,28.36,28.14,6,1,7,0.00
2013-3-16,53,48,46,38,35,34,63,60,55,28.74,28.34,2,0,4,0.00
2013-3-17,56,48,44,36,34,33,69,59,45,28.89,28.74,0,0,4,0.00
2013-3-18,55,50,44,43,39,35,74,67,58,28.88,28.74,0,0,3,0.00
2013-3-19,66,57,51,52,48,44,79,72,61,28.68,28.53,5,0,5,0.00
2013-3-20,67,62,54,53,49,46,79,63,53,28.63,28.57,2,0,6,0.00
2013-3-21,66,60,57,52,50,42,80,71,56,28.56,28.30,5,0,10,0.00
2013-3-22,61,56,51,41,36,29,64,49,38,28.51,28.30,8,2,10,0.00
2013-3-23,66,56,49,37,31,20,55,40,24,28.72,28.52,5,0,5,0.00
2013-3-24,70,60,49,48,42,36,64,53,42,28.74,28.68,1,0,5,0.00
2013-3-25,65,60,54,51,50,43,74,69,60,28.69,28.36,2,0,6,0.00
2013-3-26,65,61,55,50,46,44,75,59,51,28.41,28.29,8,2,10,0.00
2013-3-27,68,61,53,52,47,42,68,62,52,28.60,28.41,7,0,7,0.00
2013-3-28,69,59,55,54,49,45,81,69,57,28.81,28.59,6,0,6,0.00
2013-3-29,67,59,53,54,50,47,81,72,57,28.81,28.74,6,0,6,0.00
2013-3-30,75,64,56,53,50,48,78,63,40,28.75,28.59,7,0,20,0.00
2013-3-31,72,63,58,55,51,48,74,65,48,28.62,28.49,5,0,6,0.00
2013-4-1,72,62,56,52,45,38,78,55,30,28.64,28.53,9,1,9,0.00
2013-4-2,73,64,57,50,46,42,65,54,41,28.64,28.34,2,0,2,0.00
2013-4-3,68,62,58,54,47,41,80,58,39,28.43,28.23,9,1,10,0.00
2013-4-4,72,61,54,44,43,40,67,52,33,28.69,28.42,10,1,10,0.00
2013-4-5,76,64,56,49,42,35,61,46,24,28.71,28.54,8,0,8,0.00
2013-4-6,72,64,58,52,48,42,64,56,45,28.57,28.49,2,0,5,0.00
2013-4-7,70,64,59,57,51,46,76,63,56,28.52,28.09,6,0,7,0.00
2013-4-8,60,58,56,49,47,46,79,68,60,28.64,28.17,7,0,7,0.00
2013-4-9,69,59,53,49,46,45,75,63,45,28.75,28.62,7,0,7,0.00
2013-4-10,71,61,54,49,46,44,75,59,44,28.75,28.66,5,0,8,0.00
2013-4-11,72,62,55,49,45,43,67,55,37,28.79,28.67,3,0,3,0.00
2013-4-12,74,64,56,54,47,42,68,56,40,28.83,28.74,7,0,7,0.00
2013-4-13,78,66,59,51,46,43,59,50,37,28.86,28.81,10,0,10,0.00
2013-4-14,76,66,60,52,48,43,62,53,35,28.86,28.79,7,0,7,0.00
2013-4-15,65,58,54,45,43,40,66,57,41,28.86,28.76,8,1,8,0.00
2013-4-16,64,56,51,45,42,39,77,61,44,28.84,28.77,8,1,8,0.00
2013-4-17,67,58,53,40,36,29,61,45,26,28.86,28.79,8,1,8,0.00
2013-4-18,65,57,52,39,32,28,58,40,26,28.85,28.77,8,1,8,0.00
2013-4-19,64,56,51,43,37,31,60,50,39,28.77,28.69,7,0,7,0.00
2013-4-20,68,57,51,45,40,36,64,53,38,28.79,28.69,5,0,7,0.00
2013-4-21,74,60,53,45,40,37,58,48,30,28.79,28.70,6,0,7,0.00
2013-4-29,87,78,71,48,46,40,43,33,23,28.88,28.85,0,0,22,0.00
2013-4-30,89,76,67,51,46,40,44,34,25,28.88,28.82,20,1,20,0.00
2013-5-1,89,78,70,53,48,40,43,35,24,28.85,28.75,18,0,20,0.00
2013-5-2,88,78,72,49,45,39,42,32,22,28.76,28.70,21,1,21,0.00
2013-5-3,89,76,68,57,51,44,52,41,30,28.72,28.63,16,0,16,0.00
2013-5-4,92,77,69,59,55,53,59,47,30,28.75,28.63,21,1,21,0.00
2013-5-5,92,79,70,59,54,51,52,43,32,28.85,28.72,2,0,4,0.00
2013-5-6,87,77,72,56,53,48,54,44,30,28.87,28.78,8,1,13,0.00
2013-5-7,84,75,70,54,51,49,49,44,35,28.81,28.65,8,1,8,0.00
2013-5-8,78,70,64,60,55,50,69,58,47,28.69,28.59,1,0,3,0.00
2013-5-9,76,67,63,58,54,51,70,64,52,28.67,28.59,7,1,8,0.00
2013-5-10,71,67,63,56,54,51,73,64,57,28.68,28.62,6,0,6,0.00
2013-5-11,84,69,62,58,53,50,70,58,39,28.66,28.53,5,0,7,0.00
2013-5-12,83,72,66,57,55,51,69,56,39,28.54,28.42,6,0,7,0.00
2013-5-13,72,66,62,57,52,49,71,60,47,28.48,28.41,7,0,7,0.00
2013-5-14,76,65,60,55,52,50,79,64,46,28.62,28.44,6,0,7,0.00
2013-5-15,82,68,61,56,52,48,71,58,37,28.66,28.59,7,0,7,0.00
2013-5-16,76,69,64,59,53,47,71,58,39,28.69,28.61,7,0,7,0.00
2013-5-17,81,70,64,60,56,50,71,62,47,28.71,28.59,6,0,6,0.00
2013-5-18,89,75,66,62,59,54,74,58,33,28.78,28.67,11,0,18,0.00
2013-5-19,93,79,71,63,59,56,62,50,34,28.77,28.70,4,0,16,0.00
2013-5-20,93,80,72,63,59,56,61,50,36,28.73,28.67,19,0,21,0.00
2013-5-21,93,81,73,60,57,54,57,45,31,28.74,28.67,21,1,22,0.00
2013-5-22,88,78,72,60,55,46,58,48,24,28.70,28.52,8,0,13,0.00
2013-5-23,87,77,69,58,53,47,55,44,36,28.57,28.37,9,1,18,0.00
2013-5-24,82,71,65,55,50,48,56,48,37,28.69,28.49,7,1,11,0.00
2013-5-25,84,72,64,54,50,47,55,46,35,28.74,28.66,8,1,8,0.00
2013-5-26,88,74,66,54,50,46,57,45,30,28.73,28.63,7,1,10,0.00
2013-5-27,85,71,65,50,43,39,49,37,23,28.74,28.68,6,0,8,0.00
2013-5-28,78,71,64,57,51,44,60,50,43,28.74,28.54,4,0,5,0.00
2013-5-29,89,77,70,62,53,40,57,44,31,28.56,28.36,6,0,8,0.00
2013-5-30,88,76,69,60,54,48,65,47,31,28.53,28.44,13,1,13,0.00
2013-5-31,83,74,68,53,49,41,55,43,28,28.57,28.44,8,1,9,0.00
2013-6-1,74,67,63,56,47,40,70,49,37,28.64,28.56,7,0,8,0.00
2013-6-2,80,69,62,56,51,45,76,56,36,28.61,28.44,10,1,10,0.00
2013-6-3,84,71,63,54,50,48,62,49,32,28.65,28.60,10,0,11,0.00
2013-6-4,86,73,66,54,52,47,64,48,32,28.67,28.59,5,0,10,0.00
2013-6-5,85,74,66,53,51,47,56,46,30,28.72,28.66,8,0,8,0.00
2013-6-6,84,74,68,60,55,51,59,52,43,28.79,28.70,1,0,11,0.00
2013-6-7,85,74,69,58,55,52,61,52,36,28.80,28.62,3,0,7,0.00
2013-6-8,83,74,69,60,56,54,64,55,41,28.65,28.58,19,0,19,0.00
2013-6-9,88,75,67,63,58,55,69,57,42,28.73,28.64,8,0,8,0.00
2013-6-10,91,78,70,62,58,54,62,52,36,28.74,28.62,21,1,22,0.00
2013-6-11,91,80,72,60,57,54,60,47,32,28.63,28.42,21,1,21,0.00
2013-6-12,79,71,67,60,57,54,72,62,47,28.56,28.49,5,0,5,0.06
2013-6-13,76,69,65,58,57,55,74,66,52,28.62,28.52,7,0,7,0.06
2013-6-14,83,71,65,61,58,56,74,65,48,28.70,28.60,6,0,7,0.00
2013-6-15,87,75,67,64,59,56,70,58,44,28.72,28.66,20,0,20,0.00
2013-6-16,94,79,70,66,60,57,66,53,35,28.76,28.70,2,0,20,0.00
2013-6-17,95,82,73,66,60,54,69,48,33,28.78,28.74,21,1,22,0.00
2013-6-18,94,83,78,60,58,54,51,43,33,28.78,28.74,20,2,21,0.00
2013-6-19,91,82,77,59,56,53,49,41,31,28.76,28.68,19,2,19,0.00
2013-6-20,93,84,78,59,55,51,49,38,31,28.78,28.65,16,3,21,0.00
2013-6-21,90,80,75,60,56,52,50,43,32,28.77,28.72,18,3,18,0.00
2013-6-22,96,83,74,55,51,45,47,35,21,28.74,28.66,20,1,21,0.00
2013-6-23,100,86,77,64,56,48,48,38,31,28.68,28.61,20,1,21,0.00
2013-6-24,98,86,78,62,58,50,54,40,26,28.63,28.58,21,2,21,0.00
2013-6-25,99,86,78,60,58,54,48,39,26,28.62,28.57,22,2,22,0.00
2013-6-26,95,84,77,67,60,54,54,44,39,28.70,28.60,22,2,22,0.00
2013-6-27,92,82,77,66,63,60,61,52,43,28.72,28.67,22,1,22,0.00
2013-6-28,87,80,74,66,62,38,66,56,24,28.72,28.68,19,0,19,0.00
2013-6-29,90,80,74,65,60,56,67,53,36,28.72,28.56,20,0,21,0.00
2013-6-30,85,77,71,58,53,50,52,44,34,28.66,28.54,8,0,8,0.00
2013-7-1,87,77,70,58,53,50,58,45,30,28.80,28.65,12,0,19,0.00
2013-7-2,91,79,71,60,56,53,60,46,35,28.81,28.74,18,0,20,0.00
2013-7-3,92,79,72,60,55,52,57,44,33,28.77,28.68,19,0,21,0.00
2013-7-4,90,79,72,58,53,49,49,41,29,28.72,28.66,8,1,10,0.00
2013-7-5,89,79,73,61,55,49,52,44,32,28.72,28.66,16,1,16,0.00
2013-7-6,85,78,74,62,58,54,64,51,42,28.71,28.64,8,1,8,0.00
2013-7-7,90,81,74,62,60,57,61,50,38,28.76,28.64,8,1,8,0.00
2013-7-8,93,82,76,60,57,54,54,43,31,28.79,28.74,8,1,8,0.00
2013-7-9,93,83,77,62,58,53,48,43,33,28.78,28.66,7,1,9,0.00
2013-7-10,94,82,76,62,59,53,58,47,32,28.67,28.56,6,1,9,0.00
2013-7-11,94,82,76,62,58,53,54,44,32,28.65,28.57,9,0,9,0.00
2013-7-12,96,84,77,64,60,57,55,45,33,28.72,28.63,15,0,17,0.00
2013-7-13,94,84,77,64,60,56,52,46,35,28.73,28.68,6,0,6,0.00
2013-7-14,94,83,77,61,58,55,51,44,31,28.74,28.67,6,0,7,0.00
2013-7-15,92,82,76,60,56,53,52,42,32,28.72,28.66,6,0,8,0.00
2013-7-16,90,82,75,59,56,53,52,42,32,28.74,28.68,7,1,8,0.00
2013-7-17,83,76,72,60,58,53,64,53,41,28.78,28.73,7,1,8,0.00
2013-7-18,87,77,72,58,55,52,59,47,32,28.81,28.75,9,2,9,0.00
2013-7-19,89,78,73,55,53,48,51,41,29,28.80,28.71,9,2,9,0.00
2013-7-20,90,80,73,58,53,46,52,41,27,28.72,28.63,9,1,9,0.00
2013-7-21,94,83,74,58,54,49,48,38,29,28.70,28.64,7,1,7,0.00
2013-7-22,86,79,74,62,58,51,65,50,35,28.71,28.65,7,1,8,0.00
2013-7-23,89,78,72,60,54,47,61,44,25,28.69,28.65,7,1,9,0.00
2013-7-24,96,82,73,53,50,48,43,34,24,28.73,28.67,10,1,13,0.00
2013-7-25,100,86,77,62,54,50,49,35,25,28.75,28.69,13,0,19,0.00
2013-7-26,96,86,78,62,56,52,49,36,28,28.72,28.66,5,0,7,0.00
2013-7-27,95,86,80,60,55,52,39,35,29,28.75,28.66,6,0,14,0.00
2013-7-28,94,85,79,59,56,52,48,38,30,28.82,28.73,7,1,7,0.00
2013-7-29,96,85,78,57,54,51,47,35,23,28.82,28.75,7,1,9,0.00
2013-7-30,102,89,80,66,59,53,49,37,28,28.76,28.59,18,0,18,0.00
2013-7-31,98,88,82,68,62,58,50,43,34,28.63,28.57,13,1,18,0.00
2013-8-1,91,82,78,65,61,56,63,49,34,28.75,28.63,8,2,10,0.00
2013-8-2,90,82,76,61,58,53,57,45,31,28.77,28.73,8,1,8,0.00
2013-8-3,92,83,77,60,57,52,52,41,30,28.76,28.72,8,1,8,0.00
2013-8-4,96,86,79,60,56,51,47,37,25,28.77,28.70,9,2,9,0.00
2013-8-5,89,82,77,60,54,49,49,40,27,28.79,28.72,8,1,8,0.00
2013-8-6,88,80,76,56,53,49,46,39,29,28.75,28.68,9,2,9,0.00
2013-8-7,90,81,76,55,53,51,45,39,28,28.75,28.67,8,3,9,0.00
2013-8-8,94,83,76,57,53,51,47,38,24,28.77,28.71,8,1,8,0.00
2013-8-9,94,84,78,60,56,52,51,39,26,28.76,28.63,12,1,12,0.00
2013-8-10,97,84,76,67,60,52,62,46,34,28.64,28.47,18,0,19,0.00
2013-8-11,91,82,77,66,57,51,62,45,27,28.66,28.49,7,1,8,0.00
2013-8-12,92,82,77,60,55,52,55,40,28,28.74,28.65,8,1,8,0.00
2013-8-13,94,84,77,58,54,49,47,37,26,28.73,28.67,9,1,9,0.00
2013-8-14,95,85,78,56,53,50,45,34,25,28.69,28.64,12,1,16,0.00
2013-8-15,95,85,79,60,55,51,45,37,26,28.70,28.62,11,1,20,0.00
2013-8-16,88,81,75,65,62,57,66,53,44,28.71,28.65,12,1,12,0.00
2013-8-17,88,80,75,64,63,60,67,55,44,28.73,28.65,8,1,8,0.00
2013-8-18,91,82,76,60,55,51,52,40,30,28.79,28.70,8,1,12,0.00
2013-8-19,93,83,76,60,54,49,49,39,29,28.76,28.69,10,1,10,0.00
2013-8-20,94,84,77,59,54,46,46,37,25,28.72,28.66,8,1,8,0.00
2013-8-21,88,80,76,61,57,45,52,45,37,28.71,28.65,7,1,8,0.00
2013-8-22,87,78,73,63,59,56,60,52,38,28.68,28.63,8,1,8,0.00
2013-8-23,89,80,74,61,56,49,59,44,29,28.74,28.65,7,1,7,0.00
2013-8-24,94,82,74,58,52,48,44,37,27,28.75,28.68,5,0,18,0.00